Sortavala, Russia
Current Conditions -  °F | °C
As of 8:50 AM on Sunday 26 Oct 2014 (Local Time) from EFSA Reporting Station
Overcast Overcast  
Wind Chill: 34°   Ceiling: 1800
Heat Index: 39°   Visibility: 6mi
Dew Point: 32°   Wind: 8mph
Humidity: 75%   Direction: 180°S
Pressure: 30.03"   Gusts: NA
Location:  61.7°N, 30.68°E
Report Text: EFSA 260550Z AUTO 18007KT 140V230 9999 OVC018 04/00 Q1017
Loading
Personal Weather Stations






























Interactive Weather Map
Tropical Storm Tracking
New forecast layout! Learn more

10-Day Weather Forecast

Advertisements
Track Severe Weather on mobile